sensor_id;sensor_type;location;lat;lon;timestamp;P1;durP1;ratioP1;P2;durP2;ratioP2
22060;SDS011;11194;48.092;-1.382;2024-03-23T00:54:32;612.33;;;578.90;;
22060;SDS011;11194;48.092;-1.382;2024-03-23T00:56:58;611.85;;;579.25;;
22060;SDS011;11194;48.092;-1.382;2024-03-23T00:59:24;621.80;;;588.45;;
22060;SDS011;11194;48.092;-1.382;2024-03-23T01:01:53;619.28;;;585.97;;
22060;SDS011;11194;48.092;-1.382;2024-03-23T01:04:19;620.55;;;586.85;;
22060;SDS011;11194;48.092;-1.382;2024-03-23T01:06:45;618.05;;;584.17;;
22060;SDS011;11194;48.092;-1.382;2024-03-23T01:09:12;620.78;;;586.30;;
22060;SDS011;11194;48.092;-1.382;2024-03-23T01:11:38;637.90;;;602.53;;
22060;SDS011;11194;48.092;-1.382;2024-03-23T01:14:05;635.75;;;599.58;;
22060;SDS011;11194;48.092;-1.382;2024-03-23T01:16:31;628.70;;;593.30;;
22060;SDS011;11194;48.092;-1.382;2024-03-23T01:18:57;644.80;;;607.40;;
22060;SDS011;11194;48.092;-1.382;2024-03-23T01:21:23;656.00;;;617.78;;
22060;SDS011;11194;48.092;-1.382;2024-03-23T01:23:49;650.17;;;612.25;;
22060;SDS011;11194;48.092;-1.382;2024-03-23T01:26:15;651.13;;;613.83;;
22060;SDS011;11194;48.092;-1.382;2024-03-23T01:28:41;660.92;;;623.22;;
22060;SDS011;11194;48.092;-1.382;2024-03-23T01:31:07;655.95;;;617.83;;
22060;SDS011;11194;48.092;-1.382;2024-03-23T01:33:33;631.60;;;596.30;;
22060;SDS011;11194;48.092;-1.382;2024-03-23T01:35:59;633.63;;;598.10;;
22060;SDS011;11194;48.092;-1.382;2024-03-23T01:38:25;616.97;;;583.75;;
22060;SDS011;11194;48.092;-1.382;2024-03-23T01:40:56;644.35;;;608.95;;
22060;SDS011;11194;48.092;-1.382;2024-03-23T01:43:22;622.67;;;590.10;;
22060;SDS011;11194;48.092;-1.382;2024-03-23T01:45:49;632.10;;;599.10;;
22060;SDS011;11194;48.092;-1.382;2024-03-23T01:48:15;583.28;;;555.00;;
22060;SDS011;11194;48.092;-1.382;2024-03-23T01:50:41;594.63;;;565.20;;
22060;SDS011;11194;48.092;-1.382;2024-03-23T01:53:07;617.78;;;586.45;;
22060;SDS011;11194;48.092;-1.382;2024-03-23T01:55:33;612.63;;;581.30;;
22060;SDS011;11194;48.092;-1.382;2024-03-23T01:57:59;629.15;;;596.80;;
22060;SDS011;11194;48.092;-1.382;2024-03-23T02:00:25;625.80;;;593.00;;
22060;SDS011;11194;48.092;-1.382;2024-03-23T02:02:53;625.10;;;592.30;;
22060;SDS011;11194;48.092;-1.382;2024-03-23T02:05:19;633.03;;;598.83;;
22060;SDS011;11194;48.092;-1.382;2024-03-23T02:07:45;634.17;;;600.13;;
22060;SDS011;11194;48.092;-1.382;2024-03-23T02:10:12;643.42;;;608.53;;
22060;SDS011;11194;48.092;-1.382;2024-03-23T02:12:38;645.58;;;610.33;;
22060;SDS011;11194;48.092;-1.382;2024-03-23T02:15:04;640.45;;;605.58;;
22060;SDS011;11194;48.092;-1.382;2024-03-23T02:17:33;636.03;;;600.92;;
22060;SDS011;11194;48.092;-1.382;2024-03-23T02:19:59;634.83;;;599.53;;
22060;SDS011;11194;48.092;-1.382;2024-03-23T02:22:33;631.20;;;596.65;;
22060;SDS011;11194;48.092;-1.382;2024-03-23T02:24:59;637.63;;;602.67;;
22060;SDS011;11194;48.092;-1.382;2024-03-23T02:27:25;638.08;;;603.03;;
22060;SDS011;11194;48.092;-1.382;2024-03-23T02:29:51;636.13;;;602.30;;
22060;SDS011;11194;48.092;-1.382;2024-03-23T02:32:17;636.70;;;602.30;;
22060;SDS011;11194;48.092;-1.382;2024-03-23T02:34:43;634.00;;;599.97;;
22060;SDS011;11194;48.092;-1.382;2024-03-23T02:37:10;642.70;;;607.17;;
22060;SDS011;11194;48.092;-1.382;2024-03-23T02:39:36;642.15;;;607.15;;
22060;SDS011;11194;48.092;-1.382;2024-03-23T02:42:03;648.38;;;612.92;;
22060;SDS011;11194;48.092;-1.382;2024-03-23T02:44:29;636.30;;;601.75;;
22060;SDS011;11194;48.092;-1.382;2024-03-23T02:46:55;652.38;;;616.45;;
22060;SDS011;11194;48.092;-1.382;2024-03-23T02:49:21;636.30;;;602.35;;
22060;SDS011;11194;48.092;-1.382;2024-03-23T02:51:47;629.47;;;595.60;;
22060;SDS011;11194;48.092;-1.382;2024-03-23T02:54:14;611.65;;;580.10;;
22060;SDS011;11194;48.092;-1.382;2024-03-23T02:56:40;589.50;;;559.80;;
22060;SDS011;11194;48.092;-1.382;2024-03-23T02:59:06;551.00;;;524.90;;
22060;SDS011;11194;48.092;-1.382;2024-03-23T03:01:32;546.88;;;521.20;;
22060;SDS011;11194;48.092;-1.382;2024-03-23T03:03:58;553.80;;;527.67;;
22060;SDS011;11194;48.092;-1.382;2024-03-23T03:06:24;548.92;;;523.13;;
22060;SDS011;11194;48.092;-1.382;2024-03-23T03:08:50;528.88;;;504.23;;
22060;SDS011;11194;48.092;-1.382;2024-03-23T03:11:16;530.70;;;506.25;;
22060;SDS011;11194;48.092;-1.382;2024-03-23T03:13:42;537.70;;;512.22;;
22060;SDS011;11194;48.092;-1.382;2024-03-23T03:16:09;522.55;;;498.23;;
22060;SDS011;11194;48.092;-1.382;2024-03-23T03:18:35;511.67;;;488.55;;
22060;SDS011;11194;48.092;-1.382;2024-03-23T03:21:01;540.60;;;515.53;;
22060;SDS011;11194;48.092;-1.382;2024-03-23T03:23:28;570.42;;;542.88;;
22060;SDS011;11194;48.092;-1.382;2024-03-23T03:25:54;601.75;;;571.63;;
22060;SDS011;11194;48.092;-1.382;2024-03-23T03:28:20;623.28;;;591.75;;
22060;SDS011;11194;48.092;-1.382;2024-03-23T03:30:46;617.33;;;585.75;;
22060;SDS011;11194;48.092;-1.382;2024-03-23T03:33:12;606.67;;;576.15;;
22060;SDS011;11194;48.092;-1.382;2024-03-23T03:35:38;624.38;;;592.20;;
22060;SDS011;11194;48.092;-1.382;2024-03-23T03:38:04;628.40;;;596.17;;
22060;SDS011;11194;48.092;-1.382;2024-03-23T03:40:30;644.17;;;610.10;;
22060;SDS011;11194;48.092;-1.382;2024-03-23T03:42:56;628.05;;;595.30;;
22060;SDS011;11194;48.092;-1.382;2024-03-23T03:45:22;609.80;;;578.88;;
22060;SDS011;11194;48.092;-1.382;2024-03-23T03:47:48;596.00;;;566.17;;
22060;SDS011;11194;48.092;-1.382;2024-03-23T03:50:14;608.70;;;577.53;;
22060;SDS011;11194;48.092;-1.382;2024-03-23T03:52:40;601.63;;;570.42;;
22060;SDS011;11194;48.092;-1.382;2024-03-23T03:55:12;610.88;;;578.70;;
22060;SDS011;11194;48.092;-1.382;2024-03-23T03:57:38;618.15;;;585.33;;
22060;SDS011;11194;48.092;-1.382;2024-03-23T04:00:04;630.15;;;596.35;;
22060;SDS011;11194;48.092;-1.382;2024-03-23T04:02:31;635.97;;;601.58;;
22060;SDS011;11194;48.092;-1.382;2024-03-23T04:04:57;634.97;;;600.63;;
22060;SDS011;11194;48.092;-1.382;2024-03-23T04:07:23;662.88;;;626.22;;
22060;SDS011;11194;48.092;-1.382;2024-03-23T04:09:49;657.78;;;620.95;;
22060;SDS011;11194;48.092;-1.382;2024-03-23T04:12:15;661.03;;;623.92;;
22060;SDS011;11194;48.092;-1.382;2024-03-23T04:14:41;663.20;;;625.58;;
22060;SDS011;11194;48.092;-1.382;2024-03-23T04:17:07;682.72;;;644.05;;
22060;SDS011;11194;48.092;-1.382;2024-03-23T04:19:33;684.13;;;644.72;;
22060;SDS011;11194;48.092;-1.382;2024-03-23T04:21:59;682.47;;;642.90;;
22060;SDS011;11194;48.092;-1.382;2024-03-23T04:24:25;685.88;;;645.35;;
22060;SDS011;11194;48.092;-1.382;2024-03-23T04:26:52;689.40;;;648.35;;
22060;SDS011;11194;48.092;-1.382;2024-03-23T04:29:18;690.58;;;648.95;;
22060;SDS011;11194;48.092;-1.382;2024-03-23T04:31:44;694.65;;;652.45;;
22060;SDS011;11194;48.092;-1.382;2024-03-23T04:34:10;689.92;;;647.83;;
22060;SDS011;11194;48.092;-1.382;2024-03-23T04:36:36;688.83;;;646.65;;
22060;SDS011;11194;48.092;-1.382;2024-03-23T04:39:02;696.38;;;653.72;;
22060;SDS011;11194;48.092;-1.382;2024-03-23T04:41:28;694.47;;;651.30;;
22060;SDS011;11194;48.092;-1.382;2024-03-23T04:43:55;700.22;;;656.83;;
22060;SDS011;11194;48.092;-1.382;2024-03-23T04:46:21;707.25;;;662.95;;
22060;SDS011;11194;48.092;-1.382;2024-03-23T04:48:47;702.08;;;657.25;;
22060;SDS011;11194;48.092;-1.382;2024-03-23T04:51:22;710.55;;;665.35;;
22060;SDS011;11194;48.092;-1.382;2024-03-23T04:53:49;719.53;;;673.97;;
22060;SDS011;11194;48.092;-1.382;2024-03-23T04:56:15;712.45;;;666.78;;
22060;SDS011;11194;48.092;-1.382;2024-03-23T04:58:42;713.30;;;667.00;;
22060;SDS011;11194;48.092;-1.382;2024-03-23T05:01:08;714.10;;;667.35;;
22060;SDS011;11194;48.092;-1.382;2024-03-23T05:03:35;701.40;;;655.17;;
22060;SDS011;11194;48.092;-1.382;2024-03-23T05:06:01;698.47;;;652.05;;
22060;SDS011;11194;48.092;-1.382;2024-03-23T05:08:27;699.15;;;652.58;;
22060;SDS011;11194;48.092;-1.382;2024-03-23T05:10:53;705.15;;;657.92;;
22060;SDS011;11194;48.092;-1.382;2024-03-23T05:13:19;704.85;;;657.28;;
22060;SDS011;11194;48.092;-1.382;2024-03-23T05:15:50;696.40;;;649.65;;
22060;SDS011;11194;48.092;-1.382;2024-03-23T05:18:16;703.90;;;656.65;;
22060;SDS011;11194;48.092;-1.382;2024-03-23T05:20:42;705.72;;;659.05;;
22060;SDS011;11194;48.092;-1.382;2024-03-23T05:23:09;699.55;;;653.40;;
22060;SDS011;11194;48.092;-1.382;2024-03-23T05:25:35;694.35;;;647.70;;
22060;SDS011;11194;48.092;-1.382;2024-03-23T05:28:01;705.42;;;658.67;;
22060;SDS011;11194;48.092;-1.382;2024-03-23T05:30:27;698.83;;;652.45;;
22060;SDS011;11194;48.092;-1.382;2024-03-23T05:32:53;687.17;;;641.85;;
22060;SDS011;11194;48.092;-1.382;2024-03-23T05:35:20;684.00;;;638.90;;
22060;SDS011;11194;48.092;-1.382;2024-03-23T05:37:46;683.70;;;638.85;;
22060;SDS011;11194;48.092;-1.382;2024-03-23T05:40:12;684.58;;;639.60;;
22060;SDS011;11194;48.092;-1.382;2024-03-23T05:42:40;679.92;;;635.30;;
22060;SDS011;11194;48.092;-1.382;2024-03-23T05:45:06;681.47;;;636.63;;
22060;SDS011;11194;48.092;-1.382;2024-03-23T05:47:33;686.78;;;641.65;;
22060;SDS011;11194;48.092;-1.382;2024-03-23T05:49:59;686.45;;;641.55;;
22060;SDS011;11194;48.092;-1.382;2024-03-23T05:52:26;688.08;;;642.83;;
22060;SDS011;11194;48.092;-1.382;2024-03-23T05:54:52;679.65;;;635.08;;
22060;SDS011;11194;48.092;-1.382;2024-03-23T05:57:18;685.40;;;641.13;;
22060;SDS011;11194;48.092;-1.382;2024-03-23T05:59:44;682.97;;;639.42;;
22060;SDS011;11194;48.092;-1.382;2024-03-23T06:02:10;676.03;;;633.10;;
22060;SDS011;11194;48.092;-1.382;2024-03-23T06:04:36;698.22;;;653.10;;
22060;SDS011;11194;48.092;-1.382;2024-03-23T06:07:03;678.97;;;636.42;;
22060;SDS011;11194;48.092;-1.382;2024-03-23T06:09:31;691.00;;;647.70;;
22060;SDS011;11194;48.092;-1.382;2024-03-23T06:11:57;680.55;;;638.55;;
22060;SDS011;11194;48.092;-1.382;2024-03-23T06:14:23;680.22;;;639.28;;
22060;SDS011;11194;48.092;-1.382;2024-03-23T06:16:49;679.75;;;638.50;;
22060;SDS011;11194;48.092;-1.382;2024-03-23T06:19:15;671.97;;;631.35;;
22060;SDS011;11194;48.092;-1.382;2024-03-23T06:21:44;668.70;;;628.28;;
22060;SDS011;11194;48.092;-1.382;2024-03-23T06:24:13;668.97;;;629.00;;
22060;SDS011;11194;48.092;-1.382;2024-03-23T06:26:39;663.65;;;625.08;;
22060;SDS011;11194;48.092;-1.382;2024-03-23T06:29:05;647.08;;;609.83;;
22060;SDS011;11194;48.092;-1.382;2024-03-23T06:31:32;640.83;;;604.90;;
22060;SDS011;11194;48.092;-1.382;2024-03-23T06:33:58;637.35;;;601.83;;
22060;SDS011;11194;48.092;-1.382;2024-03-23T06:36:24;585.53;;;555.90;;
22060;SDS011;11194;48.092;-1.382;2024-03-23T06:38:50;467.40;;;446.25;;
22060;SDS011;11194;48.092;-1.382;2024-03-23T06:41:17;295.33;;;283.35;;
22060;SDS011;11194;48.092;-1.382;2024-03-23T06:43:43;179.00;;;172.25;;
22060;SDS011;11194;48.092;-1.382;2024-03-23T06:46:09;84.03;;;80.85;;
22060;SDS011;11194;48.092;-1.382;2024-03-23T06:48:35;29.10;;;27.95;;
22060;SDS011;11194;48.092;-1.382;2024-03-23T06:51:01;9.32;;;8.98;;
22060;SDS011;11194;48.092;-1.382;2024-03-23T06:53:27;4.00;;;3.90;;
22060;SDS011;11194;48.092;-1.382;2024-03-23T06:55:53;1.65;;;1.65;;
22060;SDS011;11194;48.092;-1.382;2024-03-23T06:58:20;1.08;;;1.08;;
22060;SDS011;11194;48.092;-1.382;2024-03-23T07:00:46;0.65;;;0.65;;
22060;SDS011;11194;48.092;-1.382;2024-03-23T07:03:12;0.57;;;0.57;;
22060;SDS011;11194;48.092;-1.382;2024-03-23T07:05:38;0.65;;;0.65;;
22060;SDS011;11194;48.092;-1.382;2024-03-23T07:08:05;0.20;;;0.20;;
22060;SDS011;11194;48.092;-1.382;2024-03-23T07:10:31;0.30;;;0.30;;
22060;SDS011;11194;48.092;-1.382;2024-03-23T07:12:57;0.20;;;0.20;;
22060;SDS011;11194;48.092;-1.382;2024-03-23T07:15:23;0.20;;;0.20;;
22060;SDS011;11194;48.092;-1.382;2024-03-23T07:17:49;0.20;;;0.20;;
22060;SDS011;11194;48.092;-1.382;2024-03-23T07:20:15;0.20;;;0.20;;
22060;SDS011;11194;48.092;-1.382;2024-03-23T07:22:41;0.10;;;0.10;;
22060;SDS011;11194;48.092;-1.382;2024-03-23T07:25:08;0.10;;;0.10;;
22060;SDS011;11194;48.092;-1.382;2024-03-23T07:27:34;0.10;;;0.10;;
22060;SDS011;11194;48.092;-1.382;2024-03-23T07:30:00;0.03;;;0.03;;
22060;SDS011;11194;48.092;-1.382;2024-03-23T07:32:26;0.10;;;0.10;;
22060;SDS011;11194;48.092;-1.382;2024-03-23T07:34:52;0.10;;;0.10;;
22060;SDS011;11194;48.092;-1.382;2024-03-23T07:37:18;0.10;;;0.10;;
22060;SDS011;11194;48.092;-1.382;2024-03-23T07:39:44;0.10;;;0.10;;
22060;SDS011;11194;48.092;-1.382;2024-03-23T07:42:10;0.10;;;0.10;;
22060;SDS011;11194;48.092;-1.382;2024-03-23T07:44:36;0.10;;;0.10;;
22060;SDS011;11194;48.092;-1.382;2024-03-23T07:47:02;0.10;;;0.10;;
22060;SDS011;11194;48.092;-1.382;2024-03-23T07:49:28;0.10;;;0.10;;
22060;SDS011;11194;48.092;-1.382;2024-03-23T07:51:55;0.10;;;0.10;;
22060;SDS011;11194;48.092;-1.382;2024-03-23T07:54:21;0.20;;;0.20;;
22060;SDS011;11194;48.092;-1.382;2024-03-23T07:56:47;0.10;;;0.10;;
22060;SDS011;11194;48.092;-1.382;2024-03-23T07:59:13;0.15;;;0.15;;
22060;SDS011;11194;48.092;-1.382;2024-03-23T08:01:39;0.10;;;0.10;;
22060;SDS011;11194;48.092;-1.382;2024-03-23T08:04:05;0.20;;;0.20;;
22060;SDS011;11194;48.092;-1.382;2024-03-23T08:06:31;0.10;;;0.10;;
22060;SDS011;11194;48.092;-1.382;2024-03-23T08:09:00;0.10;;;0.10;;
22060;SDS011;11194;48.092;-1.382;2024-03-23T08:11:28;0.17;;;0.17;;
22060;SDS011;11194;48.092;-1.382;2024-03-23T08:13:54;0.20;;;0.20;;
22060;SDS011;11194;48.092;-1.382;2024-03-23T08:16:20;0.10;;;0.10;;
22060;SDS011;11194;48.092;-1.382;2024-03-23T08:18:47;0.20;;;0.20;;
22060;SDS011;11194;48.092;-1.382;2024-03-23T08:21:13;0.20;;;0.20;;
22060;SDS011;11194;48.092;-1.382;2024-03-23T08:23:39;0.20;;;0.20;;
22060;SDS011;11194;48.092;-1.382;2024-03-23T08:26:06;0.20;;;0.20;;
22060;SDS011;11194;48.092;-1.382;2024-03-23T08:28:32;0.20;;;0.20;;
22060;SDS011;11194;48.092;-1.382;2024-03-23T08:31:03;0.20;;;0.20;;
22060;SDS011;11194;48.092;-1.382;2024-03-23T08:33:30;0.10;;;0.10;;
22060;SDS011;11194;48.092;-1.382;2024-03-23T08:35:57;0.20;;;0.20;;
22060;SDS011;11194;48.092;-1.382;2024-03-23T08:38:23;0.20;;;0.20;;
22060;SDS011;11194;48.092;-1.382;2024-03-23T08:40:59;0.20;;;0.20;;
22060;SDS011;11194;48.092;-1.382;2024-03-23T08:43:26;0.20;;;0.20;;
22060;SDS011;11194;48.092;-1.382;2024-03-23T08:45:52;0.20;;;0.20;;
22060;SDS011;11194;48.092;-1.382;2024-03-23T08:48:22;0.13;;;0.13;;
22060;SDS011;11194;48.092;-1.382;2024-03-23T08:50:58;0.20;;;0.20;;
22060;SDS011;11194;48.092;-1.382;2024-03-23T08:53:24;0.13;;;0.13;;
22060;SDS011;11194;48.092;-1.382;2024-03-23T08:55:53;0.10;;;0.10;;
22060;SDS011;11194;48.092;-1.382;2024-03-23T08:58:19;0.20;;;0.20;;
22060;SDS011;11194;48.092;-1.382;2024-03-23T09:00:45;1.55;;;1.55;;
22060;SDS011;11194;48.092;-1.382;2024-03-23T09:03:12;0.20;;;0.20;;
22060;SDS011;11194;48.092;-1.382;2024-03-23T09:05:41;0.20;;;0.20;;
22060;SDS011;11194;48.092;-1.382;2024-03-23T09:08:07;0.10;;;0.10;;
22060;SDS011;11194;48.092;-1.382;2024-03-23T09:10:40;0.10;;;0.10;;
22060;SDS011;11194;48.092;-1.382;2024-03-23T09:13:07;0.00;;;0.00;;
22060;SDS011;11194;48.092;-1.382;2024-03-23T09:15:36;0.10;;;0.10;;
22060;SDS011;11194;48.092;-1.382;2024-03-23T09:18:03;0.10;;;0.10;;
22060;SDS011;11194;48.092;-1.382;2024-03-23T09:20:32;0.00;;;0.00;;
22060;SDS011;11194;48.092;-1.382;2024-03-23T09:22:58;0.10;;;0.10;;
22060;SDS011;11194;48.092;-1.382;2024-03-23T09:25:24;0.10;;;0.10;;
22060;SDS011;11194;48.092;-1.382;2024-03-23T09:27:50;0.10;;;0.10;;
22060;SDS011;11194;48.092;-1.382;2024-03-23T09:30:16;0.10;;;0.10;;
22060;SDS011;11194;48.092;-1.382;2024-03-23T09:32:43;0.00;;;0.00;;
22060;SDS011;11194;48.092;-1.382;2024-03-23T09:35:09;0.00;;;0.00;;
22060;SDS011;11194;48.092;-1.382;2024-03-23T09:37:35;0.00;;;0.00;;
22060;SDS011;11194;48.092;-1.382;2024-03-23T09:40:02;0.10;;;0.10;;
22060;SDS011;11194;48.092;-1.382;2024-03-23T09:42:30;0.10;;;0.10;;
22060;SDS011;11194;48.092;-1.382;2024-03-23T09:44:57;0.00;;;0.00;;
22060;SDS011;11194;48.092;-1.382;2024-03-23T09:47:24;0.05;;;0.05;;
22060;SDS011;11194;48.092;-1.382;2024-03-23T09:49:50;0.03;;;0.03;;
22060;SDS011;11194;48.092;-1.382;2024-03-23T09:52:16;0.10;;;0.10;;
22060;SDS011;11194;48.092;-1.382;2024-03-23T09:54:42;0.10;;;0.10;;
22060;SDS011;11194;48.092;-1.382;2024-03-23T09:57:08;0.00;;;0.00;;
22060;SDS011;11194;48.092;-1.382;2024-03-23T09:59:34;0.00;;;0.00;;
22060;SDS011;11194;48.092;-1.382;2024-03-23T10:02:01;0.03;;;0.03;;
22060;SDS011;11194;48.092;-1.382;2024-03-23T10:04:42;0.00;;;0.00;;
22060;SDS011;11194;48.092;-1.382;2024-03-23T10:07:13;0.10;;;0.10;;
22060;SDS011;11194;48.092;-1.382;2024-03-23T10:09:39;0.00;;;0.00;;
22060;SDS011;11194;48.092;-1.382;2024-03-23T10:12:11;0.08;;;0.08;;
22060;SDS011;11194;48.092;-1.382;2024-03-23T10:14:38;0.10;;;0.10;;
22060;SDS011;11194;48.092;-1.382;2024-03-23T10:17:14;0.00;;;0.00;;
22060;SDS011;11194;48.092;-1.382;2024-03-23T10:19:50;0.10;;;0.10;;
22060;SDS011;11194;48.092;-1.382;2024-03-23T10:22:20;0.10;;;0.10;;
22060;SDS011;11194;48.092;-1.382;2024-03-23T10:24:46;0.10;;;0.10;;
22060;SDS011;11194;48.092;-1.382;2024-03-23T10:27:16;0.00;;;0.00;;
22060;SDS011;11194;48.092;-1.382;2024-03-23T10:29:43;0.10;;;0.10;;
22060;SDS011;11194;48.092;-1.382;2024-03-23T10:32:09;0.00;;;0.00;;
22060;SDS011;11194;48.092;-1.382;2024-03-23T10:34:36;0.00;;;0.00;;
22060;SDS011;11194;48.092;-1.382;2024-03-23T10:37:03;0.05;;;0.05;;
22060;SDS011;11194;48.092;-1.382;2024-03-23T10:39:30;0.10;;;0.10;;
22060;SDS011;11194;48.092;-1.382;2024-03-23T10:41:58;0.00;;;0.00;;
22060;SDS011;11194;48.092;-1.382;2024-03-23T10:44:26;0.10;;;0.10;;
22060;SDS011;11194;48.092;-1.382;2024-03-23T10:46:54;0.10;;;0.10;;
22060;SDS011;11194;48.092;-1.382;2024-03-23T10:49:24;0.00;;;0.00;;
22060;SDS011;11194;48.092;-1.382;2024-03-23T10:51:51;0.10;;;0.10;;
22060;SDS011;11194;48.092;-1.382;2024-03-23T10:54:17;0.10;;;0.10;;
22060;SDS011;11194;48.092;-1.382;2024-03-23T10:56:44;0.10;;;0.10;;
22060;SDS011;11194;48.092;-1.382;2024-03-23T10:59:10;0.00;;;0.00;;
22060;SDS011;11194;48.092;-1.382;2024-03-23T11:01:51;0.10;;;0.10;;
22060;SDS011;11194;48.092;-1.382;2024-03-23T11:04:29;0.10;;;0.10;;
22060;SDS011;11194;48.092;-1.382;2024-03-23T11:06:55;0.10;;;0.10;;
22060;SDS011;11194;48.092;-1.382;2024-03-23T11:15:05;0.10;;;0.10;;
22060;SDS011;11194;48.092;-1.382;2024-03-23T11:17:31;0.00;;;0.00;;
22060;SDS011;11194;48.092;-1.382;2024-03-23T11:19:58;0.00;;;0.00;;
22060;SDS011;11194;48.092;-1.382;2024-03-23T11:25:25;0.10;;;0.10;;
22060;SDS011;11194;48.092;-1.382;2024-03-23T11:27:55;0.10;;;0.10;;
22060;SDS011;11194;48.092;-1.382;2024-03-23T11:30:25;0.10;;;0.10;;
22060;SDS011;11194;48.092;-1.382;2024-03-23T11:32:56;0.00;;;0.00;;
22060;SDS011;11194;48.092;-1.382;2024-03-23T11:38:08;0.10;;;0.10;;
22060;SDS011;11194;48.092;-1.382;2024-03-23T11:40:35;0.10;;;0.10;;
22060;SDS011;11194;48.092;-1.382;2024-03-23T11:43:02;0.10;;;0.10;;
22060;SDS011;11194;48.092;-1.382;2024-03-23T11:45:28;0.10;;;0.10;;
22060;SDS011;11194;48.092;-1.382;2024-03-23T11:48:02;0.00;;;0.00;;
22060;SDS011;11194;48.092;-1.382;2024-03-23T11:50:28;0.00;;;0.00;;
22060;SDS011;11194;48.092;-1.382;2024-03-23T11:53:05;0.00;;;0.00;;
22060;SDS011;11194;48.092;-1.382;2024-03-23T11:55:38;0.00;;;0.00;;
22060;SDS011;11194;48.092;-1.382;2024-03-23T11:58:05;0.10;;;0.10;;
22060;SDS011;11194;48.092;-1.382;2024-03-23T12:00:31;0.00;;;0.00;;
22060;SDS011;11194;48.092;-1.382;2024-03-23T12:03:01;0.00;;;0.00;;
22060;SDS011;11194;48.092;-1.382;2024-03-23T12:05:27;0.00;;;0.00;;
22060;SDS011;11194;48.092;-1.382;2024-03-23T12:07:54;0.00;;;0.00;;
22060;SDS011;11194;48.092;-1.382;2024-03-23T12:10:20;0.10;;;0.10;;
22060;SDS011;11194;48.092;-1.382;2024-03-23T12:12:58;0.10;;;0.10;;
22060;SDS011;11194;48.092;-1.382;2024-03-23T12:15:24;0.13;;;0.13;;
22060;SDS011;11194;48.092;-1.382;2024-03-23T12:17:50;0.20;;;0.20;;
22060;SDS011;11194;48.092;-1.382;2024-03-23T12:20:16;0.17;;;0.17;;
22060;SDS011;11194;48.092;-1.382;2024-03-23T12:22:42;0.13;;;0.13;;
22060;SDS011;11194;48.092;-1.382;2024-03-23T12:25:10;0.10;;;0.10;;
22060;SDS011;11194;48.092;-1.382;2024-03-23T12:27:36;0.00;;;0.00;;
22060;SDS011;11194;48.092;-1.382;2024-03-23T12:30:02;0.05;;;0.05;;
22060;SDS011;11194;48.092;-1.382;2024-03-23T12:32:29;0.00;;;0.00;;
22060;SDS011;11194;48.092;-1.382;2024-03-23T12:34:55;0.10;;;0.10;;
22060;SDS011;11194;48.092;-1.382;2024-03-23T12:37:21;0.10;;;0.10;;
22060;SDS011;11194;48.092;-1.382;2024-03-23T12:39:47;0.03;;;0.03;;
22060;SDS011;11194;48.092;-1.382;2024-03-23T12:42:13;0.10;;;0.10;;
22060;SDS011;11194;48.092;-1.382;2024-03-23T12:44:40;0.10;;;0.10;;
22060;SDS011;11194;48.092;-1.382;2024-03-23T12:47:06;0.10;;;0.10;;
22060;SDS011;11194;48.092;-1.382;2024-03-23T12:49:32;0.00;;;0.00;;
22060;SDS011;11194;48.092;-1.382;2024-03-23T12:51:58;0.00;;;0.00;;
22060;SDS011;11194;48.092;-1.382;2024-03-23T12:54:25;0.10;;;0.10;;
22060;SDS011;11194;48.092;-1.382;2024-03-23T12:56:51;1.00;;;1.00;;
22060;SDS011;11194;48.092;-1.382;2024-03-23T12:59:17;88.80;;;85.45;;
22060;SDS011;11194;48.092;-1.382;2024-03-23T13:01:43;152.15;;;146.73;;
22060;SDS011;11194;48.092;-1.382;2024-03-23T13:04:09;117.93;;;113.60;;
22060;SDS011;11194;48.092;-1.382;2024-03-23T13:06:36;114.82;;;110.60;;
22060;SDS011;11194;48.092;-1.382;2024-03-23T13:09:02;193.23;;;186.48;;
22060;SDS011;11194;48.092;-1.382;2024-03-23T13:11:29;334.52;;;322.30;;
22060;SDS011;11194;48.092;-1.382;2024-03-23T13:13:55;359.30;;;345.70;;
22060;SDS011;11194;48.092;-1.382;2024-03-23T13:16:21;131.05;;;126.28;;
22060;SDS011;11194;48.092;-1.382;2024-03-23T13:18:48;83.93;;;80.72;;
22060;SDS011;11194;48.092;-1.382;2024-03-23T13:21:14;21.45;;;20.65;;
22060;SDS011;11194;48.092;-1.382;2024-03-23T13:23:41;18.90;;;18.15;;
22060;SDS011;11194;48.092;-1.382;2024-03-23T13:26:10;3.05;;;2.95;;
22060;SDS011;11194;48.092;-1.382;2024-03-23T13:28:37;4.00;;;3.90;;
22060;SDS011;11194;48.092;-1.382;2024-03-23T13:31:03;2.45;;;2.35;;
22060;SDS011;11194;48.092;-1.382;2024-03-23T13:33:29;0.85;;;0.85;;
22060;SDS011;11194;48.092;-1.382;2024-03-23T13:35:57;0.55;;;0.55;;
22060;SDS011;11194;48.092;-1.382;2024-03-23T13:38:24;0.40;;;0.40;;
22060;SDS011;11194;48.092;-1.382;2024-03-23T13:40:51;0.25;;;0.25;;
22060;SDS011;11194;48.092;-1.382;2024-03-23T13:43:17;0.15;;;0.15;;
22060;SDS011;11194;48.092;-1.382;2024-03-23T13:45:44;0.15;;;0.15;;
22060;SDS011;11194;48.092;-1.382;2024-03-23T13:48:10;0.10;;;0.10;;
22060;SDS011;11194;48.092;-1.382;2024-03-23T13:50:36;0.10;;;0.10;;
22060;SDS011;11194;48.092;-1.382;2024-03-23T13:53:02;0.10;;;0.10;;
22060;SDS011;11194;48.092;-1.382;2024-03-23T13:55:31;0.10;;;0.10;;
22060;SDS011;11194;48.092;-1.382;2024-03-23T13:57:57;0.10;;;0.10;;
22060;SDS011;11194;48.092;-1.382;2024-03-23T14:00:23;0.10;;;0.10;;
22060;SDS011;11194;48.092;-1.382;2024-03-23T14:02:50;0.10;;;0.10;;
22060;SDS011;11194;48.092;-1.382;2024-03-23T14:05:16;0.10;;;0.10;;
22060;SDS011;11194;48.092;-1.382;2024-03-23T14:07:42;0.10;;;0.10;;
22060;SDS011;11194;48.092;-1.382;2024-03-23T14:10:08;0.10;;;0.10;;
22060;SDS011;11194;48.092;-1.382;2024-03-23T14:12:38;0.22;;;0.22;;
22060;SDS011;11194;48.092;-1.382;2024-03-23T14:15:07;0.85;;;0.85;;
22060;SDS011;11194;48.092;-1.382;2024-03-23T14:17:34;0.40;;;0.40;;
22060;SDS011;11194;48.092;-1.382;2024-03-23T14:20:00;0.40;;;0.40;;
22060;SDS011;11194;48.092;-1.382;2024-03-23T14:22:26;0.20;;;0.20;;
22060;SDS011;11194;48.092;-1.382;2024-03-23T14:24:53;0.20;;;0.20;;
22060;SDS011;11194;48.092;-1.382;2024-03-23T14:27:19;0.10;;;0.10;;
22060;SDS011;11194;48.092;-1.382;2024-03-23T14:29:46;0.10;;;0.10;;
22060;SDS011;11194;48.092;-1.382;2024-03-23T14:32:13;0.10;;;0.10;;
22060;SDS011;11194;48.092;-1.382;2024-03-23T14:34:40;0.10;;;0.10;;
22060;SDS011;11194;48.092;-1.382;2024-03-23T14:37:07;0.10;;;0.10;;
22060;SDS011;11194;48.092;-1.382;2024-03-23T14:39:33;0.10;;;0.10;;
22060;SDS011;11194;48.092;-1.382;2024-03-23T14:42:00;0.10;;;0.10;;
22060;SDS011;11194;48.092;-1.382;2024-03-23T14:44:26;0.00;;;0.00;;
22060;SDS011;11194;48.092;-1.382;2024-03-23T14:46:53;0.10;;;0.10;;
22060;SDS011;11194;48.092;-1.382;2024-03-23T14:49:22;0.10;;;0.10;;
22060;SDS011;11194;48.092;-1.382;2024-03-23T14:51:48;0.15;;;0.15;;
22060;SDS011;11194;48.092;-1.382;2024-03-23T14:54:14;0.10;;;0.10;;
22060;SDS011;11194;48.092;-1.382;2024-03-23T14:56:40;0.10;;;0.10;;
22060;SDS011;11194;48.092;-1.382;2024-03-23T14:59:06;0.10;;;0.10;;
22060;SDS011;11194;48.092;-1.382;2024-03-23T15:01:32;0.20;;;0.20;;
22060;SDS011;11194;48.092;-1.382;2024-03-23T15:03:59;0.10;;;0.10;;
22060;SDS011;11194;48.092;-1.382;2024-03-23T15:06:25;0.10;;;0.10;;
22060;SDS011;11194;48.092;-1.382;2024-03-23T15:08:51;0.10;;;0.10;;
22060;SDS011;11194;48.092;-1.382;2024-03-23T15:11:17;0.10;;;0.10;;
22060;SDS011;11194;48.092;-1.382;2024-03-23T15:13:44;0.20;;;0.20;;